Time;durP1;ratioP1;P1;durP2;ratioP2;P2;SDS_P1;SDS_P2;PMS_P1;PMS_P2;Temp;Humidity;BMP_temperature;BMP_pressure;BME280_temperature;BME280_humidity;BME280_pressure;Samples;Min_cycle;Max_cycle;Signal;HPM_P1;HPM_P2
2022/05/15 00:01:43;;;;;;;20.50;9.30;;;;;;;12.14;57.41;100728.61;108815;1270;23635;-74
2022/05/15 00:04:12;;;;;;;13.20;7.40;;;;;;;12.12;57.39;100731.37;108870;1270;21975;-73
2022/05/15 00:06:42;;;;;;;15.90;7.90;;;;;;;12.11;57.56;100732.00;108392;1278;24172;-73
2022/05/15 00:09:11;;;;;;;17.70;7.30;;;;;;;12.11;57.74;100729.48;108362;1276;23113;-73
2022/05/15 00:11:40;;;;;;;14.90;7.60;;;;;;;12.13;57.76;100734.08;108402;1276;22007;-73
2022/05/15 00:14:13;;;;;;;13.10;7.00;;;;;;;12.14;57.59;100737.35;108353;1276;22330;-73
2022/05/15 00:16:46;;;;;;;15.60;8.00;;;;;;;12.12;57.59;100739.60;108415;1276;21997;-74
2022/05/15 00:19:21;;;;;;;14.00;7.30;;;;;;;12.09;57.54;100741.23;108628;1273;22012;-74
2022/05/15 00:22:00;;;;;;;16.10;7.70;;;;;;;12.03;57.67;100746.30;108468;1273;23716;-73
2022/05/15 00:24:29;;;;;;;15.90;7.30;;;;;;;11.97;57.77;100747.63;108434;1270;22092;-75
2022/05/15 00:26:58;;;;;;;19.80;7.80;;;;;;;11.91;57.93;100749.56;108412;1276;22945;-75
2022/05/15 00:29:27;;;;;;;12.90;7.60;;;;;;;11.86;58.14;100753.47;108169;1282;23089;-74
2022/05/15 00:31:57;;;;;;;16.50;7.70;;;;;;;11.83;58.40;100756.20;107962;1280;23750;-73
2022/05/15 00:34:26;;;;;;;13.90;7.40;;;;;;;11.82;58.51;100756.72;108025;1280;23587;-75
2022/05/15 00:36:56;;;;;;;13.60;7.60;;;;;;;11.82;58.69;100756.54;108055;1280;23160;-73
2022/05/15 00:39:25;;;;;;;21.80;7.70;;;;;;;11.81;58.80;100757.82;108044;1280;23092;-73
2022/05/15 00:41:54;;;;;;;14.20;7.40;;;;;;;11.80;58.87;100756.52;107857;1279;23631;-74
2022/05/15 00:44:23;;;;;;;16.50;8.00;;;;;;;11.77;58.82;100761.23;108464;1273;21978;-76
2022/05/15 00:46:52;;;;;;;24.60;8.70;;;;;;;11.73;58.87;100764.81;108680;1273;23142;-76
2022/05/15 00:49:21;;;;;;;15.50;8.50;;;;;;;11.68;58.99;100768.92;108662;1272;23029;-76
2022/05/15 00:52:05;;;;;;;;;;;;;;;11.62;58.90;100770.48;108726;1271;23602;-76
2022/05/15 00:55:06;;;;;;;18.30;7.90;;;;;;;11.48;59.18;100771.54;108665;1271;22061;-76
2022/05/15 00:57:47;;;;;;;12.10;7.30;;;;;;;11.43;59.54;100775.70;108867;1270;22298;-76
2022/05/15 01:00:25;;;;;;;21.40;8.70;;;;;;;11.42;59.59;100777.89;108735;1271;23054;-75
2022/05/15 01:03:00;;;;;;;16.30;8.60;;;;;;;11.41;59.63;100777.48;108446;1276;23358;-76
2022/05/15 01:05:33;;;;;;;12.70;8.20;;;;;;;11.39;59.81;100778.08;108438;1276;23081;-76
2022/05/15 01:08:02;;;;;;;15.40;7.60;;;;;;;11.38;59.90;100779.59;108648;1276;23634;-76
2022/05/15 01:10:36;;;;;;;19.40;8.40;;;;;;;11.36;60.06;100778.70;108468;1276;24170;-76
2022/05/15 01:13:10;;;;;;;14.00;7.40;;;;;;;11.33;60.19;100778.70;108513;1276;22111;-76
2022/05/15 01:15:43;;;;;;;14.90;7.30;;;;;;;11.28;60.24;100780.42;108423;1276;21992;-75
2022/05/15 01:18:23;;;;;;;21.60;8.60;;;;;;;11.22;60.33;100785.79;108681;1276;22017;-75
2022/05/15 01:21:00;;;;;;;20.90;8.20;;;;;;;11.16;60.41;100785.52;108824;1269;21981;-76
2022/05/15 01:23:30;;;;;;;16.50;8.00;;;;;;;11.10;60.48;100783.69;108718;1271;24293;-76
2022/05/15 01:26:00;;;;;;;13.80;7.50;;;;;;;11.06;60.57;100783.26;108880;1270;22049;-75
2022/05/15 01:28:30;;;;;;;15.30;8.50;;;;;;;11.02;60.68;100783.01;108806;1273;22956;-76
2022/05/15 01:31:00;;;;;;;16.90;8.50;;;;;;;10.98;60.78;100783.23;109037;1270;23100;-76
2022/05/15 01:33:29;;;;;;;11.90;7.30;;;;;;;10.95;60.95;100782.49;108755;1270;23087;-76
2022/05/15 01:35:58;;;;;;;12.20;6.70;;;;;;;10.92;61.21;100783.02;108849;1270;23626;-76
2022/05/15 01:38:27;;;;;;;14.60;7.80;;;;;;;10.88;61.34;100787.75;108751;1268;23688;-76
2022/05/15 01:40:58;;;;;;;19.20;8.90;;;;;;;10.82;61.42;100786.40;108735;1268;23027;-76
2022/05/15 01:43:30;;;;;;;14.80;8.40;;;;;;;10.75;61.50;100784.15;108714;1273;22077;-73
2022/05/15 01:45:59;;;;;;;;;;;;;;;10.68;61.67;100780.52;108813;1272;21978;-74
2022/05/15 01:48:30;;;;;;;13.50;7.70;;;;;;;10.56;62.14;100783.13;108605;1271;21987;-74
2022/05/15 01:50:59;;;;;;;15.90;8.80;;;;;;;10.52;62.19;100781.82;108527;1273;21988;-74
2022/05/15 01:53:34;;;;;;;15.40;8.20;;;;;;;10.50;62.13;100781.13;108702;1270;21978;-72
2022/05/15 01:56:04;;;;;;;16.50;8.30;;;;;;;10.48;62.22;100782.17;108814;1270;23069;-73
2022/05/15 01:58:34;;;;;;;18.20;8.70;;;;;;;10.46;62.26;100780.11;108713;1270;22076;-73
2022/05/15 02:01:04;;;;;;;18.50;8.10;;;;;;;10.45;62.46;100782.87;108408;1273;23183;-74
2022/05/15 02:03:36;;;;;;;13.70;8.00;;;;;;;10.43;62.48;100788.64;108310;1277;21999;-73
2022/05/15 02:06:06;;;;;;;14.70;7.90;;;;;;;10.43;62.59;100791.21;108258;1276;22004;-73
2022/05/15 02:08:37;;;;;;;18.50;8.20;;;;;;;10.40;62.58;100792.70;108260;1277;23696;-74
2022/05/15 02:11:07;;;;;;;13.20;7.30;;;;;;;10.37;62.65;100787.89;108275;1276;21996;-73
2022/05/15 02:13:38;;;;;;;18.20;8.90;;;;;;;10.34;62.87;100790.27;108311;1276;23722;-74
2022/05/15 02:16:08;;;;;;;12.50;7.20;;;;;;;10.30;62.90;100789.61;108328;1279;22001;-75
2022/05/15 02:18:39;;;;;;;16.60;9.20;;;;;;;10.24;63.05;100787.59;108381;1273;22129;-73
2022/05/15 02:21:08;;;;;;;12.40;8.30;;;;;;;10.21;63.04;100787.39;108721;1267;23132;-73
2022/05/15 02:23:38;;;;;;;14.40;7.50;;;;;;;10.18;63.12;100783.86;108878;1267;22666;-73
2022/05/15 02:26:07;;;;;;;16.50;8.20;;;;;;;10.14;63.27;100784.00;109035;1267;21972;-73
2022/05/15 02:28:38;;;;;;;18.90;8.20;;;;;;;10.12;63.51;100784.36;109131;1267;21979;-73
2022/05/15 02:31:07;;;;;;;15.00;8.00;;;;;;;10.11;63.58;100784.70;108688;1271;22518;-74
2022/05/15 02:33:37;;;;;;;13.60;8.00;;;;;;;10.10;63.66;100787.23;108754;1270;21984;-74
2022/05/15 02:36:06;;;;;;;19.50;8.60;;;;;;;10.08;63.69;100785.64;108697;1271;21999;-74
2022/05/15 02:38:37;;;;;;;21.60;8.80;;;;;;;10.07;63.77;100791.96;108568;1273;23083;-74
2022/05/15 02:41:06;;;;;;;18.00;8.40;;;;;;;10.04;63.63;100793.30;108733;1273;21982;-74
2022/05/15 02:43:35;;;;;;;13.70;8.80;;;;;;;10.00;63.68;100794.05;108603;1273;22758;-73
2022/05/15 02:46:05;;;;;;;16.20;9.70;;;;;;;9.94;63.75;100790.23;108430;1273;23707;-74
2022/05/15 02:51:25;;;;;;;17.90;8.50;;;;;;;9.84;64.22;100791.39;108742;1270;22058;-74
2022/05/15 02:53:58;;;;;;;14.20;9.20;;;;;;;9.80;64.28;100796.73;108459;1273;21984;-74
2022/05/15 02:56:32;;;;;;;13.70;7.50;;;;;;;9.78;64.31;100797.83;108847;1267;22085;-73
2022/05/15 02:59:06;;;;;;;22.10;8.70;;;;;;;9.76;64.40;100798.31;108605;1273;22717;-74
2022/05/15 03:01:37;;;;;;;18.60;9.30;;;;;;;9.75;64.55;100798.96;108503;1273;22046;-73
2022/05/15 03:04:07;;;;;;;25.50;8.90;;;;;;;9.75;64.58;100800.96;108356;1277;23567;-73
2022/05/15 03:06:38;;;;;;;19.40;9.80;;;;;;;9.74;64.61;100801.35;108380;1277;23064;-73
2022/05/15 03:09:07;;;;;;;19.60;9.00;;;;;;;9.74;64.62;100799.15;108322;1276;23712;-74
2022/05/15 03:11:39;;;;;;;13.40;8.40;;;;;;;9.71;64.61;100804.34;108231;1279;22061;-73
2022/05/15 03:14:08;;;;;;;12.30;8.00;;;;;;;9.69;64.71;100802.93;108083;1279;22448;-73
2022/05/15 03:16:37;;;;;;;15.60;8.60;;;;;;;9.68;64.82;100809.16;108083;1273;22073;-73
2022/05/15 03:19:07;;;;;;;16.90;8.40;;;;;;;9.68;64.84;100808.66;108147;1280;22993;-73
2022/05/15 03:21:37;;;;;;;16.40;9.10;;;;;;;9.68;64.93;100809.89;108010;1280;23070;-73
2022/05/15 03:24:12;;;;;;;19.30;9.40;;;;;;;9.69;65.23;100814.07;108194;1282;22005;-73
2022/05/15 03:26:47;;;;;;;13.90;9.10;;;;;;;9.67;65.30;100817.16;108158;1280;22050;-73
2022/05/15 03:29:18;;;;;;;14.10;8.70;;;;;;;9.64;65.30;100816.91;108264;1280;21984;-73
2022/05/15 03:31:48;;;;;;;18.30;9.90;;;;;;;9.63;65.28;100819.36;108269;1280;24358;-73
2022/05/15 03:34:18;;;;;;;20.30;10.20;;;;;;;9.64;65.48;100824.02;108267;1279;22007;-74
2022/05/15 03:36:53;;;;;;;18.70;10.30;;;;;;;9.68;65.54;100834.65;108295;1276;22251;-74
2022/05/15 03:39:24;;;;;;;19.80;12.30;;;;;;;9.70;65.50;100836.21;108619;1267;23805;-74
2022/05/15 03:41:54;;;;;;;21.40;11.20;;;;;;;9.72;65.47;100837.48;109104;1267;21979;-74
2022/05/15 03:44:23;;;;;;;20.10;10.90;;;;;;;9.73;65.54;100842.08;109152;1267;23625;-74
2022/05/15 03:46:52;;;;;;;17.00;10.30;;;;;;;9.74;65.53;100841.33;108964;1267;22046;-73
2022/05/15 03:49:22;;;;;;;27.30;9.10;;;;;;;9.75;65.51;100839.82;109158;1267;23034;-73
2022/05/15 03:51:51;;;;;;;18.60;9.90;;;;;;;9.77;65.58;100844.69;108671;1273;23700;-74
2022/05/15 03:54:23;;;;;;;20.50;9.40;;;;;;;9.81;65.67;100849.72;108314;1276;22101;-74
2022/05/15 03:56:55;;;;;;;13.40;8.40;;;;;;;9.86;65.66;100852.42;108389;1277;23214;-73
2022/05/15 03:59:31;;;;;;;14.20;8.50;;;;;;;9.91;65.54;100855.46;108327;1276;24059;-74
2022/05/15 04:02:04;;;;;;;18.20;9.60;;;;;;;9.97;65.70;100851.54;108323;1276;22001;-77
2022/05/15 04:04:34;;;;;;;15.90;8.30;;;;;;;10.05;65.87;100857.19;108410;1276;23094;-76
2022/05/15 04:07:05;;;;;;;18.50;7.70;;;;;;;10.15;65.97;100855.91;108185;1277;21989;-76
2022/05/15 04:09:34;;;;;;;16.90;8.20;;;;;;;10.24;65.89;100860.83;108368;1276;22794;-77
2022/05/15 04:12:04;;;;;;;16.00;7.50;;;;;;;10.34;66.05;100864.58;107846;1283;22953;-76
2022/05/15 04:14:35;;;;;;;14.80;7.80;;;;;;;10.46;66.09;100863.71;107959;1283;22114;-77
2022/05/15 04:17:05;;;;;;;15.60;7.70;;;;;;;10.58;65.98;100862.73;108123;1279;22000;-77
2022/05/15 04:19:38;;;;;;;16.10;7.50;;;;;;;10.69;65.81;100865.63;108630;1273;23618;-77
2022/05/15 04:22:14;;;;;;;14.90;7.70;;;;;;;10.79;65.72;100866.36;108328;1276;22311;-74
2022/05/15 04:24:43;;;;;;;19.90;8.00;;;;;;;10.89;65.58;100869.98;108368;1277;23640;-73
2022/05/15 04:27:12;;;;;;;13.50;6.80;;;;;;;10.98;65.22;100869.77;108317;1276;22027;-73
2022/05/15 04:29:42;;;;;;;15.10;7.40;;;;;;;11.07;64.84;100870.91;108041;1279;22010;-73
2022/05/15 04:32:11;;;;;;;19.10;6.90;;;;;;;11.17;64.63;100869.37;108378;1278;23663;-73
2022/05/15 04:34:40;;;;;;;13.00;7.00;;;;;;;11.27;64.38;100866.49;108266;1276;22922;-73
2022/05/15 04:37:09;;;;;;;13.60;6.60;;;;;;;11.40;64.12;100867.66;108270;1277;21995;-73
2022/05/15 04:39:39;;;;;;;13.10;6.80;;;;;;;11.51;63.75;100865.48;108380;1273;21985;-73
2022/05/15 04:42:10;;;;;;;12.20;6.80;;;;;;;11.60;63.43;100870.66;108677;1273;22021;-77
2022/05/15 04:44:39;;;;;;;12.60;6.20;;;;;;;11.72;63.46;100871.67;108288;1279;23674;-76
2022/05/15 04:47:08;;;;;;;12.20;7.30;;;;;;;11.84;63.19;100875.41;108399;1273;23629;-76
2022/05/15 04:49:38;;;;;;;10.60;6.70;;;;;;;11.96;62.84;100879.46;108718;1273;21993;-76
2022/05/15 04:52:07;;;;;;;12.90;7.00;;;;;;;12.09;62.78;100879.61;108551;1273;21978;-76
2022/05/15 04:54:38;;;;;;;11.10;6.00;;;;;;;12.26;62.46;100882.89;108537;1273;23714;-77
2022/05/15 04:57:07;;;;;;;11.90;5.40;;;;;;;12.44;62.29;100881.14;108735;1270;24422;-77
2022/05/15 04:59:36;;;;;;;15.60;6.10;;;;;;;12.64;62.13;100881.92;108754;1270;23088;-76
2022/05/15 05:02:05;;;;;;;12.80;6.20;;;;;;;12.85;61.75;100885.60;108697;1268;23018;-77
2022/05/15 05:04:47;;;;;;;13.70;5.90;;;;;;;13.04;61.17;100893.58;109150;1267;23603;-77
2022/05/15 05:07:19;;;;;;;11.10;5.10;;;;;;;13.24;60.89;100892.42;108988;1267;21993;-76
2022/05/15 05:09:51;;;;;;;12.40;5.60;;;;;;;13.45;60.34;100896.20;108994;1267;22096;-76
2022/05/15 05:12:28;;;;;;;13.80;5.70;;;;;;;13.66;59.80;100900.20;108912;1267;23697;-78
2022/05/15 05:15:00;;;;;;;17.00;5.50;;;;;;;13.88;59.60;100906.11;109182;1267;22126;-76
2022/05/15 05:17:32;;;;;;;12.40;5.30;;;;;;;14.11;59.10;100911.40;108843;1270;22960;-76
2022/05/15 05:20:10;;;;;;;9.10;4.80;;;;;;;14.36;58.52;100912.57;108878;1270;22039;-78
2022/05/15 05:22:51;;;;;;;11.20;4.30;;;;;;;14.60;57.69;100917.24;108797;1270;23786;-77
2022/05/15 05:26:04;;;;;;;12.10;3.50;;;;;;;14.83;56.93;100917.60;108950;1270;21978;-75
2022/05/15 05:28:52;;;;;;;;;;;;;;;15.09;56.41;100923.14;108856;1270;22094;-74
2022/05/15 05:32:21;;;;;;;;;;;;;;;;;;;;;
2022/05/15 05:35:38;;;;;;;;;;;;;;;;;;;;;
2022/05/15 05:41:03;;;;;;;9.10;3.40;;;;;;;16.04;53.79;100924.39;108699;1275;22944;-77
2022/05/15 05:44:27;;;;;;;;;;;;;;;;;;;;;
2022/05/15 05:50:59;;;;;;;;;;;;;;;;;;;;;
2022/05/15 05:53:58;;;;;;;9.00;3.20;;;;;;;17.90;50.11;100930.52;106473;1299;22098;-76
2022/05/15 05:56:37;;;;;;;6.20;2.50;;;;;;;18.36;48.77;100932.21;106621;1296;22104;-76
2022/05/15 05:59:21;;;;;;;8.20;2.30;;;;;;;18.75;47.15;100936.64;106806;1296;22020;-76
2022/05/15 06:01:48;;;;;;;9.00;2.70;;;;;;;19.12;46.42;100943.22;107058;1290;22014;-77
2022/05/15 06:07:29;;;;;;;5.20;2.50;;;;;;;19.71;43.92;100942.09;107901;1282;22114;-76
2022/05/15 06:10:04;;;;;;;5.70;2.30;;;;;;;20.06;43.30;100938.97;108177;1279;22069;-76
2022/05/15 06:12:34;;;;;;;6.90;2.30;;;;;;;20.34;42.13;100937.01;108080;1279;24325;-76
2022/05/15 06:15:04;;;;;;;5.10;2.40;;;;;;;20.56;41.31;100937.27;108021;1279;22002;-77
2022/05/15 06:17:40;;;;;;;9.60;2.10;;;;;;;20.79;40.84;100935.42;108166;1279;24397;-76
2022/05/15 06:20:27;;;;;;;4.20;1.90;;;;;;;21.06;40.23;100939.20;108262;1276;22059;-76
2022/05/15 06:26:51;;;;;;;4.20;2.10;;;;;;;21.49;38.69;100938.50;108398;1276;22023;-76
2022/05/15 06:30:05;;;;;;;6.20;1.50;;;;;;;21.61;37.75;100939.05;108753;1269;21991;-78
2022/05/15 06:32:47;;;;;;;6.00;2.20;;;;;;;21.73;37.25;100941.46;108612;1276;22206;-77
2022/05/15 06:35:29;;;;;;;;;;;;;;;21.81;36.49;100940.36;108404;1276;24332;-77
2022/05/15 06:38:40;;;;;;;5.00;1.60;;;;;;;21.86;36.85;100941.66;108423;1274;22436;-77
2022/05/15 06:42:09;;;;;;;10.80;1.80;;;;;;;22.10;36.21;100943.48;108075;1279;21996;-78
2022/05/15 06:45:49;;;;;;;6.20;2.10;;;;;;;22.20;35.58;100946.21;107860;1285;23651;-76
2022/05/15 06:49:22;;;;;;;7.00;1.80;;;;;;;22.32;35.63;100950.27;107836;1285;22011;-78
2022/05/15 06:53:03;;;;;;;5.90;1.50;;;;;;;22.47;35.14;100953.16;108023;1282;22253;-77
2022/05/15 06:58:36;;;;;;;7.50;2.50;;;;;;;22.72;34.28;100949.85;108379;1273;23599;-77
2022/05/15 07:01:06;;;;;;;6.30;2.70;;;;;;;22.87;34.00;100952.12;108697;1270;22636;-75
2022/05/15 07:03:38;;;;;;;6.00;1.60;;;;;;;22.89;33.40;100954.39;108764;1270;21991;-76
2022/05/15 07:06:10;;;;;;;5.30;1.70;;;;;;;22.89;33.27;100953.09;108749;1273;21983;-74
2022/05/15 07:08:39;;;;;;;6.20;1.80;;;;;;;22.97;33.33;100953.36;108320;1276;22008;-74
2022/05/15 07:11:13;;;;;;;8.20;2.10;;;;;;;23.07;32.86;100955.56;108372;1276;21984;-75
2022/05/15 07:13:44;;;;;;;10.00;2.50;;;;;;;23.08;32.23;100952.94;108381;1276;23068;-74
2022/05/15 07:16:13;;;;;;;4.60;1.40;;;;;;;23.14;32.51;100953.56;108272;1277;22055;-74
2022/05/15 07:18:46;;;;;;;9.70;2.50;;;;;;;23.29;32.28;100953.66;108294;1276;22040;-74
2022/05/15 07:21:17;;;;;;;5.50;1.90;;;;;;;23.52;32.26;100951.56;107693;1282;404439;-75
2022/05/15 07:23:51;;;;;;;7.20;1.90;;;;;;;23.75;31.54;100953.55;108283;1278;22786;-74
2022/05/15 07:26:24;;;;;;;5.80;1.60;;;;;;;23.86;30.90;100956.45;108103;1276;24316;-74
2022/05/15 07:28:54;;;;;;;7.20;1.90;;;;;;;23.76;30.46;100952.66;108163;1282;21994;-75
2022/05/15 07:31:23;;;;;;;5.00;1.80;;;;;;;23.85;30.92;100957.67;108093;1279;23112;-74
2022/05/15 07:33:54;;;;;;;;;;;;;;;23.85;30.20;100959.57;107925;1282;22463;-74
2022/05/15 07:37:12;;;;;;;9.80;1.80;;;;;;;23.78;30.65;100955.17;107532;1286;22002;-74
2022/05/15 07:41:28;;;;;;;;;;;;;;;;;;;;;
2022/05/15 07:44:57;;;;;;;;;;;;;;;;;;;;;
2022/05/15 07:48:46;;;;;;;7.10;2.00;;;;;;;24.30;29.94;100958.91;107656;1286;22118;-75
2022/05/15 07:52:25;;;;;;;6.70;1.50;;;;;;;24.46;29.72;100964.50;107142;1293;22044;-74
2022/05/15 07:55:09;;;;;;;4.60;1.60;;;;;;;24.53;29.50;100963.92;107421;1285;22004;-75
2022/05/15 07:58:47;;;;;;;;;;;;;;;;;;;;;
2022/05/15 08:02:19;;;;;;;6.90;1.70;;;;;;;24.48;28.14;100969.02;107228;1288;22001;-75
2022/05/15 08:10:32;;;;;;;5.50;1.30;;;;;;;24.39;28.90;100961.94;107539;1286;22964;-75
2022/05/15 08:13:06;;;;;;;7.80;3.50;;;;;;;24.51;28.53;100968.48;107544;1286;23799;-75
2022/05/15 08:15:37;;;;;;;23.10;4.90;;;;;;;24.57;28.49;100968.20;107650;1286;22001;-75
2022/05/15 08:23:51;;;;;;;10.00;2.60;;;;;;;25.02;27.96;100967.73;107592;1286;23635;-74
2022/05/15 08:26:33;;;;;;;;;;;;;;;24.99;27.20;100967.81;107788;1285;23094;-75
2022/05/15 08:29:06;;;;;;;5.70;2.00;;;;;;;24.80;27.39;100968.66;108043;1273;21991;-75
2022/05/15 08:31:35;;;;;;;6.10;2.30;;;;;;;24.86;27.97;100965.09;108299;1279;22031;-74
2022/05/15 08:34:06;;;;;;;8.80;1.50;;;;;;;24.95;27.46;100962.98;108301;1279;24373;-73
2022/05/15 08:36:41;;;;;;;6.60;2.40;;;;;;;24.91;27.07;100961.36;108000;1282;22012;-74
2022/05/15 08:39:14;;;;;;;7.50;1.40;;;;;;;24.91;26.93;100963.05;108147;1279;23077;-74
2022/05/15 08:42:19;;;;;;;14.60;2.20;;;;;;;24.97;26.81;100961.45;108328;1276;23629;-74
2022/05/15 08:44:55;;;;;;;5.10;2.20;;;;;;;25.17;26.97;100963.75;108321;1278;22036;-75
2022/05/15 08:47:47;;;;;;;5.40;1.60;;;;;;;25.23;26.44;100968.36;108322;1278;22006;-74
2022/05/15 08:50:33;;;;;;;5.60;1.30;;;;;;;25.27;26.54;100969.36;108399;1274;22010;-75
2022/05/15 08:53:34;;;;;;;8.40;1.40;;;;;;;25.17;25.94;100968.95;108632;1273;21995;-74
2022/05/15 08:56:11;;;;;;;6.30;2.00;;;;;;;25.05;26.30;100968.65;108812;1270;24309;-74
2022/05/15 09:00:28;;;;;;;;;;;;;;;;;;;;;
2022/05/15 09:03:35;;;;;;;5.20;1.30;;;;;;;25.25;26.40;100967.82;107852;1284;21994;-74
2022/05/15 09:07:17;;;;;;;7.10;2.70;;;;;;;25.34;26.03;100969.83;107854;1285;23083;-75
2022/05/15 09:10:35;;;;;;;7.20;1.80;;;;;;;25.52;26.37;100966.30;107031;1293;22013;-74
2022/05/15 09:13:18;;;;;;;4.20;1.50;;;;;;;25.85;26.09;100962.82;106418;1299;23926;-73
2022/05/15 09:16:04;;;;;;;5.00;1.70;;;;;;;25.95;25.23;100963.90;106323;1297;22005;-73
2022/05/15 09:18:46;;;;;;;;;;;;;;;25.75;25.19;100961.33;106748;1296;22439;-75
2022/05/15 09:21:43;;;;;;;5.90;2.30;;;;;;;25.62;25.83;100964.10;106979;1294;22318;-74
2022/05/15 09:24:29;;;;;;;4.30;1.70;;;;;;;25.71;25.93;100961.77;106640;1296;23856;-74
2022/05/15 09:28:26;;;;;;;;;;;;;;;;;;;;;
2022/05/15 09:31:42;;;;;;;4.90;2.60;;;;;;;26.01;25.21;100961.36;106180;1297;23645;-73
2022/05/15 09:34:36;;;;;;;5.50;1.40;;;;;;;26.07;25.29;100961.05;106628;1296;22023;-73
2022/05/15 09:40:09;;;;;;;3.80;1.50;;;;;;;26.19;24.68;100963.27;106876;1290;22432;-74
2022/05/15 09:46:21;;;;;;;7.00;1.20;;;;;;;26.28;24.78;100963.67;107751;1280;22007;-75
2022/05/15 09:49:34;;;;;;;6.10;1.20;;;;;;;26.29;24.43;100962.88;108036;1279;22020;-73
2022/05/15 09:52:14;;;;;;;5.10;1.50;;;;;;;26.33;24.31;100963.13;108136;1280;22742;-75
2022/05/15 09:54:49;;;;;;;6.80;1.00;;;;;;;26.30;24.23;100966.51;108031;1279;24408;-74
2022/05/15 09:57:26;;;;;;;3.60;1.00;;;;;;;26.26;24.08;100969.40;107913;1282;22013;-74
2022/05/15 09:59:57;;;;;;;5.20;1.40;;;;;;;26.08;24.04;100969.55;107966;1282;23705;-74
2022/05/15 10:02:45;;;;;;;5.10;1.30;;;;;;;26.00;24.11;100964.02;107987;1282;22242;-75
2022/05/15 10:05:14;;;;;;;2.60;0.80;;;;;;;26.05;24.61;100965.09;108045;1277;22126;-74
2022/05/15 10:08:02;;;;;;;5.40;1.10;;;;;;;26.15;24.28;100965.50;108535;1273;23610;-73
2022/05/15 10:10:42;;;;;;;4.90;1.40;;;;;;;26.17;23.95;100963.02;108674;1272;22005;-74
2022/05/15 10:13:50;;;;;;;3.20;0.80;;;;;;;26.15;23.89;100963.30;108436;1273;23172;-74
2022/05/15 10:16:32;;;;;;;13.50;1.80;;;;;;;26.13;23.91;100959.59;108152;1278;21995;-72
2022/05/15 10:19:18;;;;;;;6.40;1.40;;;;;;;26.09;23.83;100956.23;108303;1278;23192;-74
2022/05/15 10:21:55;;;;;;;4.20;1.60;;;;;;;25.97;24.22;100955.42;108535;1273;22110;-74
2022/05/15 10:24:40;;;;;;;21.60;2.30;;;;;;;25.89;23.86;100956.63;108678;1273;22035;-74
2022/05/15 10:27:42;;;;;;;5.50;1.30;;;;;;;25.74;24.25;100958.52;108710;1272;21989;-74
2022/05/15 10:30:38;;;;;;;7.90;1.70;;;;;;;25.66;24.14;100951.42;108319;1279;23074;-75
2022/05/15 10:33:17;;;;;;;4.40;1.00;;;;;;;25.54;24.07;100955.23;108312;1276;22027;-75
2022/05/15 10:36:27;;;;;;;4.20;1.00;;;;;;;25.31;23.80;100957.66;108487;1272;21989;-74
2022/05/15 10:39:33;;;;;;;7.70;1.50;;;;;;;25.02;24.05;100946.28;108780;1271;22038;-74
2022/05/15 10:42:44;;;;;;;4.50;1.60;;;;;;;24.69;23.77;100936.02;108664;1273;22024;-74
2022/05/15 10:45:48;;;;;;;5.70;1.20;;;;;;;24.22;24.45;100938.75;108680;1272;22056;-75
2022/05/15 10:48:41;;;;;;;11.10;1.30;;;;;;;23.84;24.93;100944.16;108489;1273;22841;-74
2022/05/15 10:51:42;;;;;;;6.80;1.00;;;;;;;23.47;25.28;100944.77;108821;1273;23081;-75
2022/05/15 10:58:15;;;;;;;13.30;1.70;;;;;;;23.09;26.03;100935.50;108663;1270;22160;-75
2022/05/15 11:01:22;;;;;;;4.00;1.10;;;;;;;22.95;26.20;100935.20;108713;1273;21981;-74
2022/05/15 11:04:29;;;;;;;6.00;1.30;;;;;;;22.72;26.45;100930.71;108775;1273;23769;-74
2022/05/15 11:07:21;;;;;;;5.00;1.70;;;;;;;22.52;26.23;100936.60;108986;1267;23622;-76
2022/05/15 11:10:25;;;;;;;2.90;1.30;;;;;;;22.27;26.43;100932.49;109160;1267;21980;-73
2022/05/15 11:13:10;;;;;;;3.10;0.90;;;;;;;22.16;26.99;100932.02;109195;1267;23602;-77
2022/05/15 11:16:03;;;;;;;3.60;0.80;;;;;;;22.10;26.84;100928.42;109258;1266;23626;-77
2022/05/15 11:19:02;;;;;;;2.70;0.70;;;;;;;21.95;26.88;100925.23;109126;1267;22002;-76
2022/05/15 11:21:50;;;;;;;4.60;1.10;;;;;;;21.81;27.22;100918.11;109141;1267;23770;-77
2022/05/15 11:24:34;;;;;;;6.30;1.90;;;;;;;21.76;27.49;100914.04;109151;1266;23082;-76
2022/05/15 11:27:31;;;;;;;5.00;1.30;;;;;;;21.76;27.72;100912.52;109236;1266;23717;-76
2022/05/15 11:30:14;;;;;;;3.60;1.10;;;;;;;21.69;27.54;100916.48;109156;1267;21991;-77
2022/05/15 11:32:46;;;;;;;3.20;0.90;;;;;;;21.56;27.36;100907.90;108908;1267;21986;-77
2022/05/15 11:35:18;;;;;;;4.90;1.00;;;;;;;21.51;27.64;100908.66;109215;1266;22764;-76
2022/05/15 11:37:56;;;;;;;3.00;1.20;;;;;;;21.52;27.89;100900.25;109201;1267;22771;-76
2022/05/15 11:40:42;;;;;;;4.90;1.00;;;;;;;21.53;27.91;100896.95;109149;1265;23049;-76
2022/05/15 11:43:34;;;;;;;5.10;1.00;;;;;;;21.47;27.55;100899.48;109210;1267;21976;-77
2022/05/15 11:46:09;;;;;;;;;;;;;;;21.34;27.49;100893.89;109126;1265;23745;-77
2022/05/15 11:48:44;;;;;;;3.30;1.10;;;;;;;21.23;27.79;100890.66;109144;1267;23056;-76
2022/05/15 11:51:13;;;;;;;4.10;1.20;;;;;;;21.26;28.06;100884.23;109161;1266;23033;-77
2022/05/15 11:54:10;;;;;;;3.80;1.20;;;;;;;21.29;28.05;100883.73;109125;1266;23740;-75
2022/05/15 11:56:57;;;;;;;4.90;1.60;;;;;;;21.32;27.72;100879.27;109151;1267;21999;-75
2022/05/15 11:59:26;;;;;;;2.70;0.90;;;;;;;21.35;27.61;100885.75;109049;1265;23773;-75
2022/05/15 12:01:58;;;;;;;2.20;0.80;;;;;;;21.31;27.39;100887.99;108665;1270;21985;-75
2022/05/15 12:04:35;;;;;;;;;;;;;;;21.22;27.13;100883.67;108510;1273;21985;-74
2022/05/15 12:07:06;;;;;;;3.20;1.00;;;;;;;21.08;27.50;100880.87;108831;1270;22033;-75
2022/05/15 12:09:43;;;;;;;5.00;1.10;;;;;;;21.09;27.82;100876.45;108813;1270;23631;-75
2022/05/15 12:12:30;;;;;;;2.90;0.90;;;;;;;21.15;27.88;100877.85;108831;1270;24395;-75
2022/05/15 12:15:18;;;;;;;5.60;1.40;;;;;;;21.18;28.05;100870.96;108759;1270;23768;-75
2022/05/15 12:17:50;;;;;;;2.10;0.60;;;;;;;21.21;28.09;100867.95;108752;1269;22098;-74
2022/05/15 12:20:34;;;;;;;2.90;1.00;;;;;;;21.21;27.92;100872.38;108759;1272;23071;-75
2022/05/15 12:23:38;;;;;;;3.30;1.10;;;;;;;21.24;28.06;100871.27;108661;1271;24411;-75
2022/05/15 12:26:37;;;;;;;5.20;1.90;;;;;;;21.21;27.78;100871.29;108510;1270;22051;-74
2022/05/15 12:30:03;;;;;;;1.90;0.50;;;;;;;21.10;27.75;100866.70;108483;1276;21995;-77
2022/05/15 12:32:48;;;;;;;4.40;1.00;;;;;;;21.09;28.18;100865.08;108497;1273;23084;-76
2022/05/15 12:35:30;;;;;;;3.10;0.80;;;;;;;21.14;28.07;100863.73;108476;1276;22973;-75
2022/05/15 12:38:11;;;;;;;2.30;1.00;;;;;;;21.16;27.55;100865.04;108635;1273;22034;-76
2022/05/15 12:41:27;;;;;;;1.70;0.50;;;;;;;21.09;27.53;100866.23;108498;1273;24600;-77
2022/05/15 12:43:56;;;;;;;2.60;0.80;;;;;;;21.03;27.56;100853.65;108527;1273;23802;-74
2022/05/15 12:46:34;;;;;;;2.10;0.70;;;;;;;21.00;27.52;100851.46;108547;1267;22002;-75
2022/05/15 12:49:05;;;;;;;3.00;1.30;;;;;;;20.92;27.66;100850.48;109025;1267;21980;-74
2022/05/15 12:51:40;;;;;;;2.90;1.40;;;;;;;20.89;27.57;100844.44;108878;1267;23112;-74
2022/05/15 12:54:29;;;;;;;3.70;0.70;;;;;;;20.90;27.31;100847.81;109066;1267;23055;-77
2022/05/15 12:57:03;;;;;;;3.70;0.90;;;;;;;20.88;26.85;100841.27;108976;1267;21970;-76
2022/05/15 12:59:38;;;;;;;2.80;0.70;;;;;;;20.88;26.74;100838.17;108842;1270;22131;-76
2022/05/15 13:02:23;;;;;;;1.80;0.60;;;;;;;20.88;26.68;100837.76;108693;1270;23049;-76
2022/05/15 13:04:56;;;;;;;3.10;0.90;;;;;;;20.85;26.69;100839.81;108828;1269;23119;-76
2022/05/15 13:07:30;;;;;;;3.40;0.70;;;;;;;20.86;26.76;100833.03;108409;1276;21991;-76
2022/05/15 13:10:09;;;;;;;5.60;0.70;;;;;;;20.85;26.82;100828.65;108458;1276;23088;-76
2022/05/15 13:13:08;;;;;;;1.60;0.70;;;;;;;20.83;27.01;100824.67;108389;1276;22004;-77
2022/05/15 13:15:48;;;;;;;2.90;0.70;;;;;;;20.86;27.04;100820.67;108445;1273;22295;-76